Terminal Aerodrome Forecast
Issued by NWS

Home | Current Version | Previous Version | Text Only | Print | Product List | Glossary On
Versions: 1 2 3 4 5 6 7 8 9 10 11 12 13 14 15 16 17 18 19 20 21 22 23 24
000
FTUS43 KPAH 301628 AAB
TAFCGI
TAF AMD
KCGI 301628Z 3016/3112 19012G20KT 3SM -TSRA BR OVC020CB
     FM301700 19012G20KT P6SM VCSH SCT025 BKN040
      TEMPO 3017/3021 TSRA OVC020CB
     FM302200 25012KT P6SM BKN020 OVC040
     FM310600 33007KT P6SM OVC009=

USA.gov is the U.S. government's official web portal to all federal, state and local government web resources and services.